createdAt,value
2017-12-12T00:00:46.163Z,19.37
2017-12-12T00:03:13.623Z,18.67
2017-12-12T00:05:41.055Z,18.98
2017-12-12T00:08:08.535Z,17.70
2017-12-12T00:10:35.972Z,19.33
2017-12-12T00:13:03.410Z,19.12
2017-12-12T00:15:30.835Z,18.85
2017-12-12T00:17:58.274Z,18.85
2017-12-12T00:20:25.727Z,18.98
2017-12-12T00:22:53.175Z,19.00
2017-12-12T00:25:20.627Z,17.67
2017-12-12T00:27:48.054Z,20.45
2017-12-12T00:30:15.551Z,17.73
2017-12-12T00:32:42.970Z,17.27
2017-12-12T00:35:10.411Z,17.35
2017-12-12T00:37:38.638Z,17.30
2017-12-12T00:40:06.079Z,17.45
2017-12-12T00:42:33.650Z,16.98
2017-12-12T00:45:01.093Z,16.60
2017-12-12T00:47:28.526Z,16.40
2017-12-12T00:49:56.010Z,17.12
2017-12-12T00:52:23.457Z,17.92
2017-12-12T00:54:50.899Z,17.17
2017-12-12T00:57:18.382Z,16.75
2017-12-12T00:59:45.834Z,16.10
2017-12-12T01:02:13.274Z,15.57
2017-12-12T01:04:40.970Z,17.35
2017-12-12T01:07:08.394Z,17.10
2017-12-12T01:09:35.835Z,15.73
2017-12-12T01:12:03.323Z,16.30
2017-12-12T01:14:30.782Z,17.40
2017-12-12T01:16:58.238Z,18.15
2017-12-12T01:19:25.691Z,17.58
2017-12-12T01:21:53.249Z,17.10
2017-12-12T01:24:20.674Z,17.02
2017-12-12T01:26:48.114Z,17.33
2017-12-12T01:29:16.318Z,16.60
2017-12-12T01:31:43.751Z,15.82
2017-12-12T01:34:11.182Z,16.47
2017-12-12T01:36:39.387Z,17.63
2017-12-12T01:39:06.823Z,16.75
2017-12-12T01:41:35.050Z,15.63
2017-12-12T01:44:02.483Z,17.50
2017-12-12T01:46:29.967Z,16.67
2017-12-12T01:48:57.494Z,16.40
2017-12-12T01:51:24.970Z,14.70
2017-12-12T01:53:52.406Z,16.50
2017-12-12T01:56:19.887Z,16.20
2017-12-12T01:58:47.316Z,16.60
2017-12-12T02:01:14.903Z,15.57
2017-12-12T02:03:42.335Z,16.95
2017-12-12T02:06:09.781Z,17.55
2017-12-12T02:08:37.225Z,17.33
2017-12-12T02:11:05.429Z,16.98
2017-12-12T02:13:32.879Z,18.10
2017-12-12T02:16:00.323Z,17.95
2017-12-12T02:18:27.826Z,16.45
2017-12-12T02:20:55.262Z,17.23
2017-12-12T02:23:22.738Z,17.30
2017-12-12T02:25:50.179Z,18.12
2017-12-12T02:28:17.655Z,18.75
2017-12-12T02:30:45.304Z,19.30
2017-12-12T02:33:12.743Z,18.80
2017-12-12T02:35:40.210Z,18.77
2017-12-12T02:38:07.662Z,18.27
2017-12-12T02:40:35.097Z,20.20
2017-12-12T02:43:02.574Z,19.87
2017-12-12T02:45:30.014Z,20.17
2017-12-12T02:47:57.454Z,20.00
2017-12-12T02:50:24.879Z,18.70
2017-12-12T02:52:52.315Z,19.15
2017-12-12T02:55:19.861Z,18.20
2017-12-12T02:57:47.303Z,17.27
2017-12-12T03:00:14.726Z,17.62
2017-12-12T03:02:42.234Z,16.98
2017-12-12T03:05:09.695Z,16.45
2017-12-12T03:07:37.143Z,16.65
2017-12-12T03:10:04.607Z,17.02
2017-12-12T03:12:32.060Z,15.25
2017-12-12T03:14:59.490Z,14.45
2017-12-12T03:17:26.971Z,14.80
2017-12-12T03:19:54.427Z,15.27
2017-12-12T03:22:21.887Z,14.30
2017-12-12T03:24:49.342Z,13.90
2017-12-12T03:27:16.798Z,13.97
2017-12-12T03:29:44.250Z,13.50
2017-12-12T03:32:12.426Z,14.73
2017-12-12T03:34:39.883Z,14.82
2017-12-12T03:37:07.340Z,13.65
2017-12-12T03:39:34.781Z,13.80
2017-12-12T03:42:02.257Z,14.87
2017-12-12T03:44:29.788Z,14.10
2017-12-12T03:46:57.218Z,13.10
2017-12-12T03:49:24.646Z,14.13
2017-12-12T03:51:52.188Z,13.32
2017-12-12T03:54:19.631Z,13.60
2017-12-12T03:56:47.109Z,13.23
2017-12-12T03:59:14.538Z,14.48
2017-12-12T04:01:41.999Z,13.10
2017-12-12T04:04:09.454Z,14.07
2017-12-12T04:06:36.911Z,14.20
2017-12-12T04:09:04.342Z,14.18
2017-12-12T04:11:31.778Z,13.90
2017-12-12T04:13:59.215Z,13.85
2017-12-12T04:16:27.426Z,15.13
2017-12-12T04:18:54.862Z,13.52
2017-12-12T04:21:23.066Z,13.70
2017-12-12T04:23:50.627Z,14.85
2017-12-12T04:26:18.099Z,14.30
2017-12-12T04:28:45.559Z,13.80
2017-12-12T04:31:12.987Z,13.27
2017-12-12T04:33:40.428Z,13.25
2017-12-12T04:36:07.859Z,12.70
2017-12-12T04:38:36.098Z,12.80
2017-12-12T04:41:03.523Z,13.15
2017-12-12T04:43:30.958Z,14.10
2017-12-12T04:45:59.162Z,14.55
2017-12-12T04:48:26.645Z,13.98
2017-12-12T04:50:54.098Z,14.35
2017-12-12T04:53:21.552Z,14.00
2017-12-12T04:55:49.010Z,14.10
2017-12-12T04:58:16.467Z,13.98
2017-12-12T05:00:43.918Z,14.27
2017-12-12T05:03:11.387Z,13.80
2017-12-12T05:05:38.802Z,14.00
2017-12-12T05:08:06.250Z,14.70
2017-12-12T05:10:34.469Z,13.77
2017-12-12T05:13:01.907Z,15.40
2017-12-12T05:15:29.351Z,14.75
2017-12-12T05:17:56.826Z,15.23
2017-12-12T05:20:24.254Z,15.80
2017-12-12T05:22:51.738Z,15.38
2017-12-12T05:25:19.162Z,14.75
2017-12-12T05:27:46.650Z,15.55
2017-12-12T05:30:14.116Z,15.73
2017-12-12T05:32:41.547Z,16.30
2017-12-12T05:35:09.022Z,15.20
2017-12-12T05:37:36.454Z,15.43
2017-12-12T05:40:03.949Z,15.50
2017-12-12T05:42:31.375Z,16.40
2017-12-12T05:44:58.824Z,16.08
2017-12-12T05:47:26.316Z,17.12
2017-12-12T05:49:53.774Z,17.23
2017-12-12T05:52:21.231Z,16.80
2017-12-12T05:54:48.673Z,17.45
2017-12-12T05:57:16.118Z,17.60
2017-12-12T05:59:43.570Z,18.73
2017-12-12T06:02:10.992Z,19.90
2017-12-12T06:04:39.234Z,21.02
2017-12-12T06:07:06.690Z,19.95
2017-12-12T06:09:34.131Z,18.77
2017-12-12T06:12:01.585Z,20.08
2017-12-12T06:14:29.229Z,20.42
2017-12-12T06:16:56.806Z,21.62
2017-12-12T06:19:24.262Z,22.50
2017-12-12T06:21:51.697Z,21.50
2017-12-12T06:24:19.181Z,22.07
2017-12-12T06:26:46.711Z,22.10
2017-12-12T06:29:14.311Z,21.95
2017-12-12T06:31:46.693Z,22.25
2017-12-12T06:34:14.324Z,22.83
2017-12-12T06:36:41.758Z,22.20
2017-12-12T06:39:09.218Z,22.83
2017-12-12T06:41:36.698Z,22.10
2017-12-12T06:44:04.164Z,21.83
2017-12-12T06:46:31.687Z,23.33
2017-12-12T06:48:59.348Z,22.73
2017-12-12T06:51:26.861Z,23.35
2017-12-12T06:53:55.066Z,25.42
2017-12-12T06:56:22.511Z,26.12
2017-12-12T06:58:49.964Z,26.65
2017-12-12T07:01:18.178Z,26.83
2017-12-12T07:03:45.642Z,26.52
2017-12-12T07:06:13.102Z,28.40
2017-12-12T07:08:40.538Z,26.58
2017-12-12T07:11:08.030Z,27.48
2017-12-12T07:13:35.549Z,28.12
2017-12-12T07:16:03.019Z,27.35
2017-12-12T07:18:30.477Z,26.58
2017-12-12T07:20:57.922Z,27.35
2017-12-12T07:23:25.366Z,26.55
2017-12-12T07:25:52.816Z,28.58
2017-12-12T07:28:20.285Z,28.27
2017-12-12T07:30:47.710Z,27.40
2017-12-12T07:33:15.923Z,28.12
2017-12-12T07:35:43.579Z,27.83
2017-12-12T07:38:11.013Z,27.48
2017-12-12T07:40:38.445Z,25.95
2017-12-12T07:43:05.968Z,25.60
2017-12-12T07:45:33.399Z,26.58
2017-12-12T07:48:00.882Z,23.52
2017-12-12T07:50:28.341Z,24.80
2017-12-12T07:52:55.811Z,24.25
2017-12-12T07:55:23.250Z,23.38
2017-12-12T07:57:50.732Z,24.98
2017-12-12T08:00:18.187Z,22.02
2017-12-12T08:02:45.818Z,22.27
2017-12-12T08:05:13.280Z,22.60
2017-12-12T08:07:40.815Z,21.80
2017-12-12T08:10:08.295Z,22.45
2017-12-12T08:12:35.718Z,21.12
2017-12-12T08:15:03.166Z,20.73
2017-12-12T08:17:30.616Z,20.83
2017-12-12T08:19:58.229Z,22.17
2017-12-12T08:22:25.666Z,20.05
2017-12-12T08:24:53.165Z,20.67
2017-12-12T08:27:20.689Z,19.95
2017-12-12T08:29:48.135Z,18.20
2017-12-12T08:32:15.627Z,18.40
2017-12-12T08:34:43.067Z,18.70
2017-12-12T08:37:10.508Z,18.20
2017-12-12T08:39:37.950Z,18.95
2017-12-12T08:42:06.180Z,18.92
2017-12-12T08:44:33.618Z,18.05
2017-12-12T08:47:01.046Z,18.55
2017-12-12T08:49:28.538Z,18.95
2017-12-12T08:51:56.081Z,17.70
2017-12-12T08:54:23.518Z,18.27
2017-12-12T08:56:51.025Z,19.30
2017-12-12T08:59:18.525Z,17.05
2017-12-12T09:01:46.853Z,17.12
2017-12-12T09:04:14.293Z,17.52
2017-12-12T09:06:41.769Z,16.95
2017-12-12T09:09:09.189Z,16.65
2017-12-12T09:11:36.684Z,16.08
2017-12-12T09:14:04.107Z,15.40
2017-12-12T09:16:31.554Z,15.10
2017-12-12T09:18:59.026Z,14.73
2017-12-12T09:21:26.460Z,13.80
2017-12-12T09:23:53.993Z,14.20
2017-12-12T09:26:21.427Z,13.23
2017-12-12T09:28:48.882Z,14.27
2017-12-12T09:31:16.322Z,14.60
2017-12-12T09:33:43.798Z,13.70
2017-12-12T09:36:11.238Z,12.55
2017-12-12T09:38:38.702Z,12.98
2017-12-12T09:41:06.226Z,13.20
2017-12-12T09:43:33.662Z,13.32
2017-12-12T09:46:01.112Z,14.27
2017-12-12T09:48:29.352Z,14.30
2017-12-12T09:50:56.786Z,14.23
2017-12-12T09:53:24.403Z,14.18
2017-12-12T09:55:52.631Z,14.07
2017-12-12T09:58:20.105Z,14.15
2017-12-12T10:00:47.572Z,13.62
2017-12-12T10:03:14.998Z,13.80
2017-12-12T10:05:42.497Z,12.90
2017-12-12T10:08:10.722Z,12.85
2017-12-12T10:10:38.191Z,13.30
2017-12-12T10:13:05.757Z,13.53
2017-12-12T10:15:33.236Z,13.18
2017-12-12T10:18:00.783Z,14.20
2017-12-12T10:20:28.222Z,13.65
2017-12-12T10:22:55.664Z,14.27
2017-12-12T10:25:24.019Z,14.70
2017-12-12T10:27:52.226Z,14.52
2017-12-12T10:30:19.662Z,14.13
2017-12-12T10:32:48.366Z,14.23
2017-12-12T10:35:15.821Z,14.48
2017-12-12T10:37:43.263Z,14.10
2017-12-12T10:40:10.723Z,15.20
2017-12-12T10:42:38.176Z,14.10
2017-12-12T10:45:05.648Z,13.40
2017-12-12T10:47:33.076Z,14.40
2017-12-12T10:50:00.525Z,13.32
2017-12-12T10:52:29.842Z,12.68
2017-12-12T10:54:57.288Z,12.70
2017-12-12T10:57:25.675Z,11.70
2017-12-12T10:59:53.182Z,12.32
2017-12-12T11:02:20.720Z,13.25
2017-12-12T11:04:48.154Z,13.68
2017-12-12T11:07:15.582Z,12.37
2017-12-12T11:09:43.794Z,11.75
2017-12-12T11:12:11.241Z,12.55
2017-12-12T11:14:38.731Z,11.88
2017-12-12T11:17:06.185Z,12.25
2017-12-12T11:19:33.730Z,11.65
2017-12-12T11:22:01.166Z,11.85
2017-12-12T11:24:28.642Z,11.50
2017-12-12T11:26:56.070Z,12.63
2017-12-12T11:29:23.508Z,12.48
2017-12-12T11:31:51.745Z,12.07
2017-12-12T11:34:19.194Z,13.40
2017-12-12T11:36:46.624Z,14.60
2017-12-12T11:39:14.104Z,13.38
2017-12-12T11:41:41.538Z,14.30
2017-12-12T11:44:08.975Z,13.77
2017-12-12T11:46:36.471Z,14.10
2017-12-12T11:49:03.908Z,15.57
2017-12-12T11:51:31.349Z,14.73
2017-12-12T11:53:58.797Z,14.63
2017-12-12T11:56:26.242Z,15.82
2017-12-12T11:58:54.466Z,16.48
2017-12-12T12:01:21.908Z,15.07
2017-12-12T12:03:49.378Z,16.77
2017-12-12T12:06:16.866Z,17.60
2017-12-12T12:08:44.282Z,16.42
2017-12-12T12:11:11.725Z,16.10
2017-12-12T12:13:39.214Z,16.40
2017-12-12T12:16:06.651Z,15.40
2017-12-12T12:18:34.101Z,16.27
2017-12-12T12:21:01.713Z,16.40
2017-12-12T12:23:29.929Z,16.80
2017-12-12T12:25:57.487Z,16.08
2017-12-12T12:28:24.933Z,15.88
2017-12-12T12:30:52.370Z,16.48
2017-12-12T12:33:20.574Z,16.08
2017-12-12T12:35:48.143Z,15.90
2017-12-12T12:38:15.577Z,16.52
2017-12-12T12:40:43.007Z,16.75
2017-12-12T12:43:11.215Z,16.60
2017-12-12T12:45:38.679Z,16.45
2017-12-12T12:48:06.135Z,16.05
2017-12-12T12:50:33.567Z,16.40
2017-12-12T12:53:01.055Z,16.40
2017-12-12T12:55:28.531Z,16.45
2017-12-12T12:57:55.958Z,16.52
2017-12-12T13:00:23.408Z,16.17
2017-12-12T13:02:50.888Z,16.45
2017-12-12T13:05:18.323Z,17.15
2017-12-12T13:07:45.778Z,17.10
2017-12-12T13:10:14.213Z,16.12
2017-12-12T13:12:42.458Z,16.80
2017-12-12T13:15:09.907Z,17.55
2017-12-12T13:17:37.363Z,16.48
2017-12-12T13:20:04.796Z,17.40
2017-12-12T13:22:32.294Z,17.67
2017-12-12T13:24:59.731Z,16.70
2017-12-12T13:27:27.191Z,18.15
2017-12-12T13:29:54.662Z,18.42
2017-12-12T13:32:22.103Z,18.03
2017-12-12T13:34:49.558Z,18.17
2017-12-12T13:37:17.101Z,18.33
2017-12-12T13:39:44.584Z,18.65
2017-12-12T13:42:12.030Z,19.40
2017-12-12T13:44:39.580Z,18.55
2017-12-12T13:47:07.038Z,18.80
2017-12-12T13:49:34.490Z,18.98
2017-12-12T13:52:02.054Z,18.62
2017-12-12T13:54:29.598Z,17.50
2017-12-12T13:56:57.065Z,17.75
2017-12-12T13:59:24.486Z,15.82
2017-12-12T14:01:52.022Z,16.98
2017-12-12T14:04:20.243Z,16.10
2017-12-12T14:06:47.674Z,15.18
2017-12-12T14:09:15.929Z,14.70
2017-12-12T14:11:43.385Z,14.95
2017-12-12T14:14:10.840Z,14.10
2017-12-12T14:16:39.088Z,14.20
2017-12-12T14:19:06.546Z,14.45
2017-12-12T14:21:34.014Z,14.15
2017-12-12T14:24:01.503Z,13.70
2017-12-12T14:26:29.739Z,14.70
2017-12-12T14:28:57.221Z,12.82
2017-12-12T14:31:25.436Z,14.60
2017-12-12T14:33:52.878Z,14.50
2017-12-12T14:36:20.367Z,14.02
2017-12-12T14:38:47.799Z,14.43
2017-12-12T14:41:15.234Z,13.73
2017-12-12T14:43:42.694Z,14.20
2017-12-12T14:46:10.892Z,12.50
2017-12-12T14:48:38.322Z,13.35
2017-12-12T14:51:05.815Z,13.10
2017-12-12T14:53:33.360Z,12.70
2017-12-12T14:56:00.783Z,12.83
2017-12-12T14:58:28.243Z,12.23
2017-12-12T15:00:56.446Z,12.13
2017-12-12T15:03:23.878Z,11.80
2017-12-12T15:05:51.322Z,11.68
2017-12-12T15:08:18.917Z,12.77
2017-12-12T15:10:46.391Z,10.73
2017-12-12T15:13:13.822Z,11.57
2017-12-12T15:15:41.386Z,11.43
2017-12-12T15:18:08.874Z,11.85
2017-12-12T15:20:36.322Z,11.23
2017-12-12T15:23:03.774Z,10.45
2017-12-12T15:25:31.229Z,10.95
2017-12-12T15:27:58.775Z,11.25
2017-12-12T15:30:26.263Z,11.12
2017-12-12T15:32:53.707Z,11.07
2017-12-12T15:35:21.166Z,10.73
2017-12-12T15:37:48.611Z,10.60
2017-12-12T15:40:16.062Z,11.15
2017-12-12T15:42:43.538Z,11.63
2017-12-12T15:45:10.975Z,10.93
2017-12-12T15:47:38.419Z,11.10
2017-12-12T15:50:05.898Z,10.32
2017-12-12T15:52:33.366Z,10.40
2017-12-12T15:55:00.916Z,11.10
2017-12-12T15:57:29.167Z,11.40
2017-12-12T15:59:56.608Z,11.75
2017-12-12T16:02:24.100Z,11.12
2017-12-12T16:04:52.202Z,12.35
2017-12-12T16:07:19.754Z,12.30
2017-12-12T16:09:47.190Z,12.65
2017-12-12T16:12:14.627Z,12.80
2017-12-12T16:14:42.099Z,13.55
2017-12-12T16:17:09.546Z,13.80
2017-12-12T16:19:36.988Z,14.57
2017-12-12T16:22:04.444Z,15.25
2017-12-12T16:24:31.866Z,14.75
2017-12-12T16:27:00.076Z,15.10
2017-12-12T16:29:27.844Z,15.35
2017-12-12T16:31:55.299Z,14.50
2017-12-12T16:34:22.724Z,15.48
2017-12-12T16:36:50.918Z,15.27
2017-12-12T16:39:18.438Z,14.83
2017-12-12T16:41:47.055Z,14.40
2017-12-12T16:44:14.555Z,15.65
2017-12-12T16:46:41.999Z,15.73
2017-12-12T16:49:09.463Z,15.80
2017-12-12T16:51:36.926Z,15.20
2017-12-12T16:54:04.375Z,15.45
2017-12-12T16:56:31.820Z,15.13
2017-12-12T16:58:59.389Z,16.35
2017-12-12T17:01:26.845Z,14.55
2017-12-12T17:03:54.304Z,14.85
2017-12-12T17:06:21.752Z,15.10
2017-12-12T17:08:49.240Z,14.45
2017-12-12T17:11:16.668Z,14.70
2017-12-12T17:13:44.125Z,15.15
2017-12-12T17:16:11.583Z,15.73
2017-12-12T17:18:39.058Z,14.73
2017-12-12T17:21:06.486Z,15.82
2017-12-12T17:23:33.942Z,16.12
2017-12-12T17:26:01.510Z,16.27
2017-12-12T17:28:28.955Z,16.23
2017-12-12T17:30:56.437Z,14.82
2017-12-12T17:33:23.864Z,16.33
2017-12-12T17:35:51.335Z,15.48
2017-12-12T17:38:18.782Z,15.95
2017-12-12T17:40:46.219Z,16.27
2017-12-12T17:43:13.779Z,15.80
2017-12-12T17:45:41.287Z,16.10
2017-12-12T17:48:08.752Z,16.55
2017-12-12T17:50:36.199Z,16.73
2017-12-12T17:53:04.063Z,16.85
2017-12-12T17:55:31.495Z,16.25
2017-12-12T17:57:58.926Z,16.52
2017-12-12T18:00:26.491Z,16.75
2017-12-12T18:02:53.930Z,16.40
2017-12-12T18:05:21.426Z,16.55
2017-12-12T18:07:48.880Z,16.67
2017-12-12T18:10:16.335Z,17.58
2017-12-12T18:12:43.800Z,17.05
2017-12-12T18:15:11.235Z,17.58
2017-12-12T18:17:38.706Z,18.42
2017-12-12T18:20:06.162Z,18.73
2017-12-12T18:22:33.643Z,18.85
2017-12-12T18:25:01.088Z,19.20
2017-12-12T18:27:28.570Z,18.83
2017-12-12T18:29:55.994Z,19.60
2017-12-12T18:32:23.433Z,19.70
2017-12-12T18:34:51.678Z,19.10
2017-12-12T18:37:19.158Z,20.83
2017-12-12T18:39:46.611Z,20.77
2017-12-12T18:42:14.146Z,20.67
2017-12-12T18:44:41.580Z,24.73
2017-12-12T18:47:09.061Z,24.20
2017-12-12T18:49:36.490Z,22.52
2017-12-12T18:52:03.926Z,21.35
2017-12-12T18:54:31.374Z,21.80
2017-12-12T18:56:59.495Z,21.58
2017-12-12T18:59:26.925Z,21.40
2017-12-12T19:01:55.028Z,22.08
2017-12-12T19:04:22.463Z,21.25
2017-12-12T19:06:49.923Z,21.85
2017-12-12T19:09:17.354Z,21.15
2017-12-12T19:11:44.785Z,22.77
2017-12-12T19:14:12.235Z,21.60
2017-12-12T19:16:39.667Z,21.45
2017-12-12T19:19:07.293Z,21.08
2017-12-12T19:21:34.706Z,21.62
2017-12-12T19:24:02.915Z,22.52
2017-12-12T19:26:30.338Z,20.58
2017-12-12T19:28:58.582Z,20.62
2017-12-12T19:31:26.013Z,21.10
2017-12-12T19:33:53.463Z,21.50
2017-12-12T19:36:20.886Z,22.33
2017-12-12T19:38:49.094Z,22.05
2017-12-12T19:41:16.534Z,23.70
2017-12-12T19:43:43.990Z,24.70
2017-12-12T19:46:11.499Z,24.87
2017-12-12T19:48:38.938Z,25.05
2017-12-12T19:51:06.378Z,25.67
2017-12-12T19:53:33.844Z,26.15
2017-12-12T19:56:01.284Z,26.92
2017-12-12T19:58:29.367Z,25.83
2017-12-12T20:00:56.821Z,26.40
2017-12-12T20:03:24.280Z,26.67
2017-12-12T20:05:51.712Z,26.70
2017-12-12T20:08:19.155Z,26.08
2017-12-12T20:10:46.661Z,26.15
2017-12-12T20:13:14.091Z,26.08
2017-12-12T20:15:41.550Z,25.48
2017-12-12T20:18:08.988Z,27.30
2017-12-12T20:20:36.458Z,27.52
2017-12-12T20:23:03.890Z,27.00
2017-12-12T20:25:32.091Z,26.70
2017-12-12T20:27:59.526Z,27.40
2017-12-12T20:30:27.902Z,27.33
2017-12-12T20:32:55.417Z,27.73
2017-12-12T20:35:22.854Z,29.73
2017-12-12T20:37:50.302Z,28.20
2017-12-12T20:40:17.743Z,29.00
2017-12-12T20:42:45.243Z,28.85
2017-12-12T20:45:12.767Z,28.55
2017-12-12T20:47:40.244Z,29.33
2017-12-12T20:50:07.677Z,30.02
2017-12-12T20:52:35.150Z,30.20
2017-12-12T20:55:02.602Z,30.42
2017-12-12T20:57:30.062Z,31.17
2017-12-12T20:59:57.538Z,31.50
2017-12-12T21:02:24.986Z,30.65
2017-12-12T21:04:52.442Z,31.08
2017-12-12T21:07:25.616Z,32.17
2017-12-12T21:09:53.067Z,31.25
2017-12-12T21:12:20.518Z,32.13
2017-12-12T21:14:48.094Z,32.65
2017-12-12T21:17:15.538Z,33.85
2017-12-12T21:19:42.975Z,34.65
2017-12-12T21:22:10.474Z,33.92
2017-12-12T21:24:37.926Z,37.03
2017-12-12T21:27:05.374Z,35.65
2017-12-12T21:29:32.834Z,37.35
2017-12-12T21:32:00.294Z,36.70
2017-12-12T21:34:27.830Z,38.45
2017-12-12T21:36:55.310Z,36.42
2017-12-12T21:39:22.741Z,38.55
2017-12-12T21:41:50.222Z,38.47
2017-12-12T21:44:17.779Z,38.50
2017-12-12T21:46:45.238Z,37.90
2017-12-12T21:49:12.670Z,36.47
2017-12-12T21:51:40.269Z,38.50
2017-12-12T21:54:09.243Z,37.55
2017-12-12T21:56:36.684Z,36.58
2017-12-12T21:59:04.133Z,36.60
2017-12-12T22:01:31.615Z,38.15
2017-12-12T22:03:59.148Z,37.70
2017-12-12T22:06:26.623Z,37.92
2017-12-12T22:08:54.059Z,36.37
2017-12-12T22:11:21.535Z,38.00
2017-12-12T22:13:48.972Z,36.93
2017-12-12T22:16:16.407Z,36.90
2017-12-12T22:18:44.594Z,35.50
2017-12-12T22:21:12.076Z,34.00
2017-12-12T22:23:39.523Z,35.33
2017-12-12T22:26:06.990Z,33.53
2017-12-12T22:28:34.447Z,33.92
2017-12-12T22:31:01.883Z,34.15
2017-12-12T22:33:29.315Z,31.90
2017-12-12T22:35:56.746Z,32.60
2017-12-12T22:38:24.196Z,31.55
2017-12-12T22:40:51.628Z,32.45
2017-12-12T22:43:19.074Z,32.20
2017-12-12T22:45:46.507Z,30.75
2017-12-12T22:48:13.951Z,30.67
2017-12-12T22:50:42.138Z,30.45
2017-12-12T22:53:09.589Z,30.45
2017-12-12T22:55:37.083Z,30.85
2017-12-12T22:58:04.506Z,28.92
2017-12-12T23:00:31.954Z,31.15
2017-12-12T23:02:59.442Z,28.95
2017-12-12T23:05:27.014Z,29.65
2017-12-12T23:07:54.475Z,28.67
2017-12-12T23:10:21.901Z,30.33
2017-12-12T23:12:49.340Z,29.17
2017-12-12T23:15:16.827Z,30.42
2017-12-12T23:17:44.278Z,28.55
2017-12-12T23:20:11.711Z,27.67
2017-12-12T23:22:39.198Z,27.65
2017-12-12T23:25:06.746Z,28.10
2017-12-12T23:27:34.181Z,28.33
2017-12-12T23:30:01.615Z,28.38
2017-12-12T23:32:29.050Z,29.35
2017-12-12T23:34:56.582Z,27.00
2017-12-12T23:37:24.019Z,26.98
2017-12-12T23:39:51.491Z,27.48
2017-12-12T23:42:18.924Z,28.08
2017-12-12T23:44:46.410Z,27.23
2017-12-12T23:47:13.865Z,27.23
2017-12-12T23:49:41.423Z,27.67
2017-12-12T23:52:08.859Z,26.48
2017-12-12T23:54:36.305Z,25.83
2017-12-12T23:57:03.722Z,25.52
2017-12-12T23:59:31.251Z,25.58
